createdAt,value
2022-10-25T00:00:30.554Z,26.11
2022-10-25T00:03:26.127Z,21.51
2022-10-25T00:06:01.512Z,19.96
2022-10-25T00:08:35.100Z,20.50
2022-10-25T00:11:09.561Z,18.67
2022-10-25T00:13:43.061Z,18.35
2022-10-25T00:16:19.210Z,18.67
2022-10-25T00:18:52.717Z,17.35
2022-10-25T00:21:28.285Z,16.99
2022-10-25T00:24:01.731Z,16.94
2022-10-25T00:26:36.008Z,16.30
2022-10-25T00:29:12.461Z,15.75
2022-10-25T00:31:47.063Z,16.15
2022-10-25T00:34:20.542Z,16.09
2022-10-25T00:36:55.894Z,16.38
2022-10-25T00:39:29.488Z,15.82
2022-10-25T00:42:05.614Z,15.87
2022-10-25T00:44:50.414Z,15.40
2022-10-25T00:47:32.441Z,15.83
2022-10-25T00:50:13.520Z,15.80
2022-10-25T00:52:50.009Z,14.85
2022-10-25T00:55:27.848Z,15.21
2022-10-25T00:58:05.091Z,15.33
2022-10-25T01:00:38.708Z,15.02
2022-10-25T01:03:17.654Z,15.73
2022-10-25T01:05:52.652Z,15.58
2022-10-25T01:08:28.996Z,14.77
2022-10-25T01:11:04.728Z,15.24
2022-10-25T01:13:40.712Z,15.72
2022-10-25T01:16:22.227Z,14.95
2022-10-25T01:19:07.155Z,15.18
2022-10-25T01:21:47.061Z,15.41
2022-10-25T01:24:52.081Z,14.87
2022-10-25T01:27:45.336Z,15.58
2022-10-25T01:30:21.226Z,15.67
2022-10-25T01:33:03.461Z,15.05
2022-10-25T01:35:44.824Z,15.24
2022-10-25T01:38:36.086Z,14.99
2022-10-25T01:41:20.017Z,14.84
2022-10-25T01:44:01.801Z,15.28
2022-10-25T01:46:42.912Z,15.55
2022-10-25T01:49:21.786Z,17.40
2022-10-25T01:51:55.261Z,19.89
2022-10-25T01:54:28.722Z,21.00
2022-10-25T01:57:12.075Z,20.92
2022-10-25T02:00:08.235Z,21.68
2022-10-25T02:02:56.649Z,25.13
2022-10-25T02:05:37.089Z,26.60
2022-10-25T02:08:21.681Z,27.67
2022-10-25T02:11:02.481Z,28.66
2022-10-25T02:13:45.200Z,29.07
2022-10-25T02:16:23.260Z,28.39
2022-10-25T02:19:01.538Z,27.29
2022-10-25T02:21:38.000Z,28.06
2022-10-25T02:24:14.967Z,29.06
2022-10-25T02:26:51.035Z,26.76
2022-10-25T02:29:27.159Z,27.40
2022-10-25T02:32:00.879Z,26.95
2022-10-25T02:34:34.263Z,26.91
2022-10-25T02:37:09.119Z,27.38
2022-10-25T02:39:45.558Z,27.34
2022-10-25T02:42:19.016Z,28.16
2022-10-25T02:44:54.412Z,27.87
2022-10-25T02:47:28.172Z,27.15
2022-10-25T02:50:01.445Z,26.86
2022-10-25T02:52:36.453Z,27.08
2022-10-25T02:55:10.016Z,26.48
2022-10-25T02:57:48.445Z,25.50
2022-10-25T03:00:21.827Z,26.22
2022-10-25T03:02:55.321Z,25.84
2022-10-25T03:05:28.583Z,26.02
2022-10-25T03:08:03.462Z,25.39
2022-10-25T03:10:39.118Z,25.23
2022-10-25T03:13:12.685Z,24.61
2022-10-25T03:15:46.624Z,23.87
2022-10-25T03:18:20.169Z,25.03
2022-10-25T03:20:53.598Z,26.02
2022-10-25T03:23:30.783Z,26.00
2022-10-25T03:26:06.846Z,25.91
2022-10-25T03:28:42.780Z,25.54
2022-10-25T03:31:17.096Z,26.21
2022-10-25T03:33:51.260Z,26.14
2022-10-25T03:36:24.514Z,27.23
2022-10-25T03:38:59.368Z,27.25
2022-10-25T03:41:32.677Z,27.07
2022-10-25T03:44:08.263Z,27.63
2022-10-25T03:46:44.407Z,26.28
2022-10-25T03:49:17.841Z,26.38
2022-10-25T03:51:53.978Z,27.04
2022-10-25T03:54:32.616Z,26.81
2022-10-25T03:57:06.139Z,26.67
2022-10-25T03:59:42.153Z,26.11
2022-10-25T04:02:18.393Z,26.41
2022-10-25T04:04:51.878Z,26.40
2022-10-25T04:07:27.270Z,26.03
2022-10-25T04:10:02.131Z,26.29
2022-10-25T04:12:35.417Z,26.97
2022-10-25T04:15:11.491Z,26.19
2022-10-25T04:17:45.068Z,25.29
2022-10-25T04:20:18.899Z,24.99
2022-10-25T04:22:56.106Z,25.35
2022-10-25T04:25:31.034Z,25.41
2022-10-25T04:28:06.716Z,24.53
2022-10-25T04:30:40.211Z,23.42
2022-10-25T04:33:13.499Z,24.50
2022-10-25T04:35:53.664Z,23.69
2022-10-25T04:38:29.301Z,23.85
2022-10-25T04:41:04.185Z,23.69
2022-10-25T04:43:37.921Z,23.68
2022-10-25T04:46:16.501Z,23.35
2022-10-25T04:48:50.112Z,22.87
2022-10-25T04:51:28.456Z,23.39
2022-10-25T04:54:01.664Z,27.07
2022-10-25T04:56:36.520Z,24.28
2022-10-25T04:59:12.391Z,23.75
2022-10-25T05:01:45.951Z,23.31
2022-10-25T05:04:21.861Z,23.85
2022-10-25T05:06:55.416Z,23.95
2022-10-25T05:09:30.783Z,22.79
2022-10-25T05:12:05.944Z,23.94
2022-10-25T05:14:39.233Z,23.61
2022-10-25T05:17:12.730Z,23.16
2022-10-25T05:19:46.056Z,22.61
2022-10-25T05:22:21.743Z,23.30
2022-10-25T05:24:55.012Z,23.57
2022-10-25T05:27:29.838Z,23.01
2022-10-25T05:30:06.539Z,24.14
2022-10-25T05:32:40.097Z,28.50
2022-10-25T05:35:13.405Z,24.39
2022-10-25T05:37:47.356Z,23.51
2022-10-25T05:40:20.649Z,23.51
2022-10-25T05:42:57.740Z,23.23
2022-10-25T05:45:31.076Z,22.91
2022-10-25T05:48:06.704Z,22.29
2022-10-25T05:53:15.600Z,34.19
2022-10-25T05:55:48.868Z,23.52
2022-10-25T05:58:25.828Z,23.84
2022-10-25T06:01:02.028Z,25.01
2022-10-25T06:03:35.600Z,27.39
2022-10-25T06:06:11.048Z,24.02
2022-10-25T06:08:47.411Z,23.66
2022-10-25T06:11:20.910Z,24.55
2022-10-25T06:13:55.779Z,24.30
2022-10-25T06:16:29.134Z,24.41
2022-10-25T06:19:02.762Z,24.55
2022-10-25T06:21:38.357Z,24.46
2022-10-25T06:24:12.163Z,23.93
2022-10-25T06:26:45.428Z,24.52
2022-10-25T06:29:22.550Z,23.68
2022-10-25T06:31:55.993Z,23.94
2022-10-25T06:34:29.550Z,24.95
2022-10-25T06:37:05.088Z,23.89
2022-10-25T06:39:40.888Z,24.75
2022-10-25T06:42:16.308Z,24.44
2022-10-25T06:44:51.181Z,25.04
2022-10-25T06:47:24.585Z,24.69
2022-10-25T06:50:00.477Z,24.91
2022-10-25T06:52:35.839Z,24.45
2022-10-25T06:55:09.550Z,24.92
2022-10-25T06:57:42.843Z,25.16
2022-10-25T07:00:18.033Z,24.86
2022-10-25T07:02:55.245Z,23.71
2022-10-25T07:05:28.731Z,23.78
2022-10-25T07:08:02.026Z,23.02
2022-10-25T07:10:35.542Z,23.43
2022-10-25T07:13:08.878Z,23.31
2022-10-25T07:15:43.766Z,22.57
2022-10-25T07:18:17.126Z,22.82
2022-10-25T07:20:53.111Z,22.62
2022-10-25T07:23:26.452Z,22.62
2022-10-25T07:25:59.980Z,23.22
2022-10-25T07:28:35.414Z,24.85
2022-10-25T07:31:14.763Z,22.21
2022-10-25T07:33:48.100Z,21.82
2022-10-25T07:36:21.692Z,20.79
2022-10-25T07:38:57.956Z,20.00
2022-10-25T07:41:33.779Z,19.70
2022-10-25T07:44:12.973Z,19.94
2022-10-25T07:46:54.122Z,19.54
2022-10-25T07:49:29.569Z,19.16
2022-10-25T07:52:03.144Z,18.48
2022-10-25T07:54:36.516Z,19.18
2022-10-25T07:57:11.065Z,19.49
2022-10-25T07:59:44.329Z,19.15
2022-10-25T08:02:21.804Z,18.61
2022-10-25T08:04:57.502Z,18.36
2022-10-25T08:07:33.477Z,17.84
2022-10-25T08:10:07.029Z,18.02
2022-10-25T08:12:43.051Z,17.60
2022-10-25T08:15:17.064Z,16.77
2022-10-25T08:17:57.860Z,16.69
2022-10-25T08:20:56.886Z,17.64
2022-10-25T08:23:27.499Z,17.61
2022-10-25T08:26:00.786Z,17.32
2022-10-25T08:28:36.591Z,17.56
2022-10-25T08:31:10.441Z,17.64
2022-10-25T08:33:45.408Z,18.85
2022-10-25T08:36:18.638Z,18.12
2022-10-25T08:38:54.217Z,17.70
2022-10-25T08:41:35.156Z,17.95
2022-10-25T08:44:15.781Z,17.74
2022-10-25T08:46:58.360Z,17.65
2022-10-25T08:49:41.060Z,18.01
2022-10-25T08:52:20.668Z,18.93
2022-10-25T08:55:01.761Z,18.49
2022-10-25T08:57:45.160Z,18.51
2022-10-25T09:00:21.070Z,19.05
2022-10-25T09:02:55.586Z,19.25
2022-10-25T09:05:37.929Z,20.81
2022-10-25T09:08:27.938Z,20.59
2022-10-25T09:11:08.696Z,20.24
2022-10-25T09:13:51.087Z,19.87
2022-10-25T09:16:31.370Z,18.96
2022-10-25T09:19:12.027Z,18.98
2022-10-25T09:21:51.385Z,19.15
2022-10-25T09:24:29.785Z,19.58
2022-10-25T09:27:07.494Z,19.62
2022-10-25T09:29:48.203Z,18.54
2022-10-25T09:32:29.494Z,18.68
2022-10-25T09:35:14.543Z,18.53
2022-10-25T09:37:53.229Z,17.98
2022-10-25T09:40:30.377Z,16.75
2022-10-25T09:43:07.251Z,17.14
2022-10-25T09:45:48.708Z,16.26
2022-10-25T09:48:28.801Z,15.72
2022-10-25T09:51:13.563Z,15.19
2022-10-25T09:53:48.529Z,14.84
2022-10-25T09:56:21.821Z,14.83
2022-10-25T09:58:55.316Z,15.24
2022-10-25T10:01:30.514Z,15.68
2022-10-25T10:04:12.653Z,15.69
2022-10-25T10:06:48.147Z,16.38
2022-10-25T10:09:23.446Z,16.26
2022-10-25T10:12:05.541Z,16.84
2022-10-25T10:14:42.324Z,16.53
2022-10-25T10:17:19.501Z,16.41
2022-10-25T10:20:08.459Z,17.14
2022-10-25T10:22:46.718Z,18.31
2022-10-25T10:25:24.245Z,17.99
2022-10-25T10:27:58.683Z,17.91
2022-10-25T10:30:32.853Z,18.73
2022-10-25T10:33:09.545Z,18.91
2022-10-25T10:35:45.231Z,18.08
2022-10-25T10:38:23.359Z,18.42
2022-10-25T10:41:16.896Z,18.47
2022-10-25T10:43:51.017Z,19.34
2022-10-25T10:46:25.805Z,17.90
2022-10-25T10:48:59.253Z,17.45
2022-10-25T10:51:43.961Z,17.62
2022-10-25T10:54:24.343Z,15.52
2022-10-25T10:57:01.257Z,15.79
2022-10-25T10:59:41.322Z,14.91
2022-10-25T11:02:27.422Z,15.32
2022-10-25T11:05:03.378Z,14.41
2022-10-25T11:07:36.975Z,14.63
2022-10-25T11:10:20.572Z,14.28
2022-10-25T11:13:25.638Z,14.74
2022-10-25T11:16:17.920Z,17.69
2022-10-25T11:19:02.784Z,13.26
2022-10-25T11:21:46.110Z,13.38
2022-10-25T11:24:29.156Z,14.20
2022-10-25T11:29:04.567Z,12.43
2022-10-25T11:31:50.539Z,12.26
2022-10-25T11:34:30.912Z,11.83
2022-10-25T11:37:12.771Z,12.13
2022-10-25T11:39:51.403Z,11.54
2022-10-25T11:42:39.107Z,13.72
2022-10-25T11:45:37.165Z,12.86
2022-10-25T11:48:30.440Z,11.87
2022-10-25T11:51:14.045Z,11.74
2022-10-25T11:54:09.069Z,12.92
2022-10-25T11:56:51.051Z,13.31
2022-10-25T11:59:28.654Z,13.55
2022-10-25T12:02:14.306Z,14.19
2022-10-25T12:05:03.741Z,14.54
2022-10-25T12:07:42.514Z,14.32
2022-10-25T12:10:23.099Z,14.83
2022-10-25T12:13:00.740Z,14.67
2022-10-25T12:15:39.069Z,14.22
2022-10-25T12:18:15.579Z,13.75
2022-10-25T12:20:51.162Z,12.64
2022-10-25T12:23:27.390Z,12.96
2022-10-25T12:26:06.178Z,12.98
2022-10-25T12:28:45.446Z,13.50
2022-10-25T12:31:24.116Z,13.70
2022-10-25T12:34:02.433Z,13.80
2022-10-25T12:36:39.728Z,13.10
2022-10-25T12:39:16.758Z,13.21
2022-10-25T12:41:57.071Z,13.17
2022-10-25T12:44:47.228Z,13.10
2022-10-25T12:47:29.799Z,14.52
2022-10-25T12:50:21.174Z,13.00
2022-10-25T12:53:17.953Z,29.37
2022-10-25T12:56:02.086Z,14.71
2022-10-25T12:58:53.968Z,13.53
2022-10-25T13:01:40.254Z,12.84
2022-10-25T13:04:25.317Z,13.39
2022-10-25T13:07:00.018Z,13.14
2022-10-25T13:09:44.127Z,16.74
2022-10-25T13:12:23.946Z,17.08
2022-10-25T13:14:58.805Z,15.41
2022-10-25T13:17:53.008Z,13.94
2022-10-25T13:20:45.411Z,26.61
2022-10-25T13:23:37.294Z,24.41
2022-10-25T13:26:13.593Z,15.89
2022-10-25T13:28:50.322Z,16.05
2022-10-25T13:31:46.742Z,13.47
2022-10-25T13:34:37.995Z,13.77
2022-10-25T13:37:32.303Z,39.40
2022-10-25T13:40:07.933Z,16.17
2022-10-25T13:42:45.231Z,13.31
2022-10-25T13:45:24.041Z,18.09
2022-10-25T13:48:09.215Z,13.09
2022-10-25T13:50:47.240Z,11.17
2022-10-25T13:53:24.626Z,11.93
2022-10-25T13:56:03.591Z,11.28
2022-10-25T13:58:49.392Z,10.73
2022-10-25T14:01:49.784Z,11.50
2022-10-25T14:04:37.142Z,11.68
2022-10-25T14:07:46.421Z,11.37
2022-10-25T14:10:26.810Z,11.21
2022-10-25T14:13:08.407Z,11.56
2022-10-25T14:15:48.057Z,11.71
2022-10-25T14:18:24.608Z,18.55
2022-10-25T14:21:02.869Z,11.29
2022-10-25T14:23:36.523Z,11.57
2022-10-25T14:26:15.660Z,11.28
2022-10-25T14:28:51.518Z,11.49
2022-10-25T14:31:26.886Z,11.01
2022-10-25T14:34:00.280Z,11.01
2022-10-25T14:36:36.612Z,12.17
2022-10-25T14:39:17.282Z,12.28
2022-10-25T14:41:54.766Z,11.79
2022-10-25T14:44:32.444Z,13.05
2022-10-25T14:47:27.087Z,13.46
2022-10-25T14:50:01.468Z,11.84
2022-10-25T14:52:37.601Z,11.36
2022-10-25T14:55:18.556Z,11.30
2022-10-25T14:57:59.643Z,11.95
2022-10-25T15:00:33.042Z,11.57
2022-10-25T15:03:12.554Z,11.16
2022-10-25T15:05:50.617Z,11.96
2022-10-25T15:08:26.753Z,12.16
2022-10-25T15:11:05.369Z,11.45
2022-10-25T15:13:45.147Z,11.69
2022-10-25T15:16:29.921Z,11.43
2022-10-25T15:19:23.293Z,26.72
2022-10-25T15:22:07.467Z,14.68
2022-10-25T15:24:44.312Z,11.70
2022-10-25T15:27:26.435Z,11.77
2022-10-25T15:30:04.860Z,12.18
2022-10-25T15:32:38.279Z,12.26
2022-10-25T15:35:23.305Z,12.68
2022-10-25T15:38:00.221Z,12.57
2022-10-25T15:40:36.643Z,14.40
2022-10-25T15:43:14.251Z,19.36
2022-10-25T15:45:48.001Z,12.58
2022-10-25T15:48:23.420Z,11.55
2022-10-25T15:50:59.331Z,12.63
2022-10-25T15:53:33.988Z,15.29
2022-10-25T15:56:07.694Z,11.65
2022-10-25T15:58:41.196Z,10.80
2022-10-25T16:01:15.403Z,11.20
2022-10-25T16:03:48.808Z,11.08
2022-10-25T16:06:22.283Z,11.68
2022-10-25T16:08:56.915Z,11.75
2022-10-25T16:11:30.594Z,12.36
2022-10-25T16:14:04.719Z,13.26
2022-10-25T16:16:40.840Z,13.88
2022-10-25T16:19:15.944Z,30.31
2022-10-25T16:21:51.794Z,24.30
2022-10-25T16:24:28.685Z,19.15
2022-10-25T16:27:02.228Z,25.53
2022-10-25T16:29:35.538Z,21.78
2022-10-25T16:32:11.583Z,17.76
2022-10-25T16:34:46.111Z,12.12
2022-10-25T16:37:19.691Z,12.29
2022-10-25T16:39:54.450Z,12.79
2022-10-25T16:42:29.250Z,14.12
2022-10-25T16:45:03.514Z,12.84
2022-10-25T16:47:37.602Z,11.65
2022-10-25T16:50:13.209Z,12.24
2022-10-25T16:52:47.417Z,12.38
2022-10-25T16:55:22.348Z,12.68
2022-10-25T16:57:59.019Z,13.44
2022-10-25T17:00:36.062Z,12.91
2022-10-25T17:03:12.223Z,17.79
2022-10-25T17:05:52.214Z,28.27
2022-10-25T17:08:30.836Z,14.01
2022-10-25T17:11:05.537Z,12.36
2022-10-25T17:13:41.584Z,13.51
2022-10-25T17:16:17.393Z,16.26
2022-10-25T17:18:50.972Z,13.26
2022-10-25T17:21:24.639Z,12.89
2022-10-25T17:24:00.527Z,11.82
2022-10-25T17:26:35.320Z,12.14
2022-10-25T17:29:14.441Z,12.38
2022-10-25T17:31:49.609Z,12.03
2022-10-25T17:34:23.448Z,12.16
2022-10-25T17:37:05.165Z,12.54
2022-10-25T17:39:38.668Z,12.37
2022-10-25T17:42:15.836Z,14.23
2022-10-25T17:44:51.544Z,14.13
2022-10-25T17:47:24.911Z,12.98
2022-10-25T17:50:01.584Z,13.22
2022-10-25T17:52:41.319Z,12.82
2022-10-25T17:55:14.940Z,12.70
2022-10-25T17:57:51.978Z,12.33
2022-10-25T18:00:25.527Z,12.50
2022-10-25T18:03:01.159Z,12.56
2022-10-25T18:05:39.263Z,11.64
2022-10-25T18:08:14.874Z,11.24
2022-10-25T18:10:50.568Z,11.24
2022-10-25T18:13:25.310Z,11.43
2022-10-25T18:16:01.820Z,11.99
2022-10-25T18:18:35.543Z,11.99
2022-10-25T18:21:10.197Z,12.38
2022-10-25T18:23:45.710Z,12.11
2022-10-25T18:26:19.173Z,12.74
2022-10-25T18:28:54.094Z,13.92
2022-10-25T18:31:28.093Z,14.47
2022-10-25T18:34:04.448Z,15.16
2022-10-25T18:36:37.993Z,16.22
2022-10-25T18:39:11.347Z,18.14
2022-10-25T18:41:47.949Z,20.07
2022-10-25T18:44:22.682Z,22.25
2022-10-25T18:46:56.162Z,21.40
2022-10-25T18:49:29.446Z,20.24
2022-10-25T18:52:02.987Z,19.32
2022-10-25T18:54:36.303Z,17.66
2022-10-25T18:57:09.846Z,17.81
2022-10-25T18:59:44.524Z,16.60
2022-10-25T19:02:18.345Z,15.27
2022-10-25T19:04:51.730Z,16.00
2022-10-25T19:07:27.724Z,16.81
2022-10-25T19:10:01.045Z,16.81
2022-10-25T19:12:34.559Z,16.74
2022-10-25T19:15:09.966Z,17.34
2022-10-25T19:17:45.847Z,27.02
2022-10-25T19:20:23.865Z,18.91
2022-10-25T19:22:58.853Z,17.50
2022-10-25T19:25:32.592Z,17.54
2022-10-25T19:28:06.917Z,17.22
2022-10-25T19:30:41.682Z,17.38
2022-10-25T19:33:17.583Z,17.61
2022-10-25T19:35:50.957Z,17.56
2022-10-25T19:38:27.067Z,17.49
2022-10-25T19:41:01.518Z,17.43
2022-10-25T19:43:37.424Z,17.98
2022-10-25T19:46:17.112Z,16.91
2022-10-25T19:48:50.626Z,16.92
2022-10-25T19:51:26.197Z,18.79
2022-10-25T19:53:59.736Z,18.59
2022-10-25T19:56:34.039Z,18.12
2022-10-25T19:59:08.105Z,17.17
2022-10-25T20:01:45.856Z,16.77
2022-10-25T20:04:19.504Z,16.76
2022-10-25T20:06:53.723Z,16.42
2022-10-25T20:09:27.272Z,16.13
2022-10-25T20:12:00.941Z,17.51
2022-10-25T20:14:37.808Z,16.97
2022-10-25T20:17:13.276Z,16.25
2022-10-25T20:19:49.115Z,16.88
2022-10-25T20:22:22.444Z,17.74
2022-10-25T20:25:00.696Z,16.94
2022-10-25T20:27:34.933Z,16.19
2022-10-25T20:30:08.704Z,16.74
2022-10-25T20:32:43.321Z,15.61
2022-10-25T20:35:21.251Z,15.21
2022-10-25T20:37:56.794Z,16.01
2022-10-25T20:40:30.329Z,15.94
2022-10-25T20:43:03.640Z,15.52
2022-10-25T20:45:37.186Z,15.21
2022-10-25T20:48:11.843Z,15.03
2022-10-25T20:50:49.638Z,15.06
2022-10-25T20:53:23.143Z,15.23
2022-10-25T20:56:00.152Z,15.60
2022-10-25T20:58:34.355Z,15.55
2022-10-25T21:01:08.039Z,15.84
2022-10-25T21:03:42.825Z,16.08
2022-10-25T21:06:16.708Z,15.43
2022-10-25T21:08:50.000Z,16.63
2022-10-25T21:11:23.472Z,16.32
2022-10-25T21:13:58.840Z,17.57
2022-10-25T21:16:32.519Z,17.09
2022-10-25T21:19:07.230Z,17.46
2022-10-25T21:21:40.638Z,17.04
2022-10-25T21:24:16.309Z,17.46
2022-10-25T21:26:54.206Z,17.56
2022-10-25T21:29:30.552Z,17.47
2022-10-25T21:32:06.528Z,17.31
2022-10-25T21:34:44.122Z,17.59
2022-10-25T21:37:17.607Z,17.93
2022-10-25T21:39:51.073Z,17.49
2022-10-25T21:42:24.684Z,18.51
2022-10-25T21:44:58.357Z,18.68
2022-10-25T21:47:31.897Z,18.79
2022-10-25T21:50:09.253Z,18.79
2022-10-25T21:52:42.760Z,18.97
2022-10-25T21:55:18.247Z,20.31
2022-10-25T21:57:54.160Z,19.48
2022-10-25T22:00:30.316Z,19.03
2022-10-25T22:03:03.791Z,19.73
2022-10-25T22:05:44.929Z,19.49
2022-10-25T22:08:21.906Z,19.31
2022-10-25T22:10:55.913Z,19.35
2022-10-25T22:13:29.572Z,18.87
2022-10-25T22:16:04.752Z,19.38
2022-10-25T22:18:41.049Z,18.57
2022-10-25T22:21:15.972Z,18.71
2022-10-25T22:23:51.892Z,19.07
2022-10-25T22:26:25.449Z,19.32
2022-10-25T22:29:00.221Z,19.55
2022-10-25T22:31:36.053Z,19.35
2022-10-25T22:34:10.786Z,19.23
2022-10-25T22:36:48.520Z,19.07
2022-10-25T22:39:22.004Z,18.83
2022-10-25T22:41:57.589Z,18.82
2022-10-25T22:44:31.083Z,18.99
2022-10-25T22:47:04.465Z,18.80
2022-10-25T22:49:38.027Z,18.68
2022-10-25T22:52:13.797Z,19.13
2022-10-25T22:54:47.258Z,18.80
2022-10-25T22:57:21.458Z,18.67
2022-10-25T22:59:59.778Z,18.97
2022-10-25T23:02:33.011Z,18.29
2022-10-25T23:05:09.661Z,17.72
2022-10-25T23:07:44.309Z,18.63
2022-10-25T23:10:20.813Z,18.91
2022-10-25T23:12:56.283Z,18.12
2022-10-25T23:15:29.948Z,18.43
2022-10-25T23:18:03.250Z,18.34
2022-10-25T23:20:36.671Z,18.45
2022-10-25T23:23:11.390Z,18.54
2022-10-25T23:25:45.027Z,19.09
2022-10-25T23:28:18.289Z,19.37
2022-10-25T23:30:51.819Z,19.74
2022-10-25T23:33:25.091Z,19.09
2022-10-25T23:36:02.606Z,20.12
2022-10-25T23:38:39.949Z,20.54
2022-10-25T23:41:13.960Z,20.63
2022-10-25T23:43:47.224Z,21.32
2022-10-25T23:46:23.109Z,21.10
2022-10-25T23:48:56.465Z,21.37
2022-10-25T23:51:30.011Z,21.91
2022-10-25T23:54:04.977Z,22.64
2022-10-25T23:56:38.421Z,22.61
2022-10-25T23:59:11.685Z,22.92
